Time;durP1;ratioP1;P1;durP2;ratioP2;P2;SDS_P1;SDS_P2;PMS_P1;PMS_P2;Temp;Humidity;BMP_temperature;BMP_pressure;BME280_temperature;BME280_humidity;BME280_pressure;Samples;Min_cycle;Max_cycle;Signal;HPM_P1;HPM_P2
2023/07/23 00:00:31;;;;;;;9.63;5.43;;;;;;;13.95;100.00;100825.00;10482408;28;20036;-80
2023/07/23 00:05:32;;;;;;;7.00;4.60;;;;;;;13.92;100.00;100803.84;10482185;28;20048;-80
2023/07/23 00:10:32;;;;;;;8.60;4.05;;;;;;;13.89;100.00;100803.75;10501822;28;20116;-79
2023/07/23 00:15:33;;;;;;;9.30;6.00;;;;;;;13.83;100.00;100791.28;10467703;28;20078;-80
2023/07/23 00:20:33;;;;;;;10.88;4.93;;;;;;;13.79;100.00;100787.66;10497078;28;20093;-80
2023/07/23 00:25:34;;;;;;;17.00;6.28;;;;;;;13.74;100.00;100778.72;10488501;28;20068;-80
2023/07/23 00:30:35;;;;;;;14.73;4.78;;;;;;;13.71;100.00;100767.22;10465554;28;20033;-81
2023/07/23 00:35:36;;;;;;;12.32;5.45;;;;;;;13.66;100.00;100764.41;10456230;28;20044;-80
2023/07/23 00:40:36;;;;;;;11.13;4.65;;;;;;;13.67;100.00;100753.06;10468181;28;20061;-80
2023/07/23 00:45:36;;;;;;;9.27;4.32;;;;;;;13.64;100.00;100745.97;10499706;28;20560;-80
2023/07/23 00:50:37;;;;;;;14.98;4.88;;;;;;;13.60;100.00;100735.28;10497183;28;20036;-80
2023/07/23 00:55:37;;;;;;;9.63;4.75;;;;;;;13.57;100.00;100729.94;10447720;28;20067;-80
2023/07/23 01:00:38;;;;;;;9.73;5.97;;;;;;;13.56;100.00;100717.63;10490576;28;20120;-80
2023/07/23 01:05:39;;;;;;;8.60;4.05;;;;;;;13.56;100.00;100718.53;10467515;28;20384;-80
2023/07/23 01:10:39;;;;;;;8.70;4.72;;;;;;;13.49;100.00;100712.16;10475907;28;20063;-81
2023/07/23 01:15:40;;;;;;;9.45;4.75;;;;;;;13.49;100.00;100693.75;10472675;28;20339;-81
2023/07/23 01:20:40;;;;;;;9.15;5.80;;;;;;;13.51;100.00;100680.69;10480850;28;20046;-81
2023/07/23 01:25:41;;;;;;;8.45;4.97;;;;;;;13.55;100.00;100679.03;10482511;28;20124;-80
2023/07/23 01:30:41;;;;;;;7.88;4.55;;;;;;;13.53;100.00;100676.38;10474525;28;20032;-81
2023/07/23 01:35:44;;;;;;;15.27;6.07;;;;;;;13.49;100.00;100661.31;10512915;28;20112;-81
2023/07/23 01:40:45;;;;;;;12.52;6.43;;;;;;;13.44;100.00;100655.91;10477977;28;20037;-81
2023/07/23 01:45:46;;;;;;;11.27;5.32;;;;;;;13.38;100.00;100652.16;10465232;28;20506;-81
2023/07/23 01:50:47;;;;;;;6.97;4.88;;;;;;;13.31;100.00;100646.72;10496032;28;20476;-81
2023/07/23 01:55:47;;;;;;;18.88;6.65;;;;;;;13.24;100.00;100644.72;10477021;28;20044;-81
2023/07/23 02:00:48;;;;;;;15.60;6.72;;;;;;;13.17;100.00;100637.47;10478482;28;20123;-81
2023/07/23 02:05:59;;;;;;;10.90;6.30;;;;;;;13.11;100.00;100627.63;10480716;28;20544;-81
2023/07/23 02:11:00;;;;;;;11.38;6.07;;;;;;;13.15;100.00;100620.78;10507018;27;20037;-81
2023/07/23 02:16:00;;;;;;;13.88;6.10;;;;;;;13.18;100.00;100613.88;10488918;27;20131;-81
2023/07/23 02:21:01;;;;;;;13.63;6.80;;;;;;;13.17;100.00;100614.69;10490590;27;20048;-81
2023/07/23 02:26:02;;;;;;;11.65;6.95;;;;;;;13.20;100.00;100599.03;10468302;27;20028;-81
2023/07/23 02:31:02;;;;;;;13.02;6.25;;;;;;;13.24;100.00;100602.69;10465129;28;20060;-81
2023/07/23 02:36:03;;;;;;;10.52;7.47;;;;;;;13.27;100.00;100599.22;10434096;28;20178;-81
2023/07/23 02:41:03;;;;;;;11.43;6.28;;;;;;;13.30;100.00;100592.34;10445334;28;20177;-81
2023/07/23 02:46:04;;;;;;;13.38;6.03;;;;;;;13.34;100.00;100598.59;10402072;28;20045;-81
2023/07/23 02:51:04;;;;;;;16.27;6.38;;;;;;;13.34;100.00;100589.00;10424809;28;20052;-81
2023/07/23 02:56:05;;;;;;;13.35;5.65;;;;;;;13.36;100.00;100589.03;10420458;28;20150;-81
2023/07/23 03:01:06;;;;;;;11.75;6.05;;;;;;;13.41;100.00;100590.06;10412102;28;20041;-81
2023/07/23 03:06:07;;;;;;;10.93;6.65;;;;;;;13.44;100.00;100584.06;10402066;28;20047;-81
2023/07/23 03:11:07;;;;;;;14.48;6.22;;;;;;;13.49;100.00;100572.81;10421048;28;20033;-82
2023/07/23 03:16:08;;;;;;;33.83;7.70;;;;;;;13.56;100.00;100575.63;10425562;28;20037;-81
2023/07/23 03:21:08;;;;;;;10.13;5.88;;;;;;;13.62;100.00;100566.22;10430692;28;20683;-80
2023/07/23 03:26:09;;;;;;;8.80;5.25;;;;;;;13.68;100.00;100552.34;10406424;28;20057;-81
2023/07/23 03:31:11;;;;;;;7.90;5.38;;;;;;;13.77;100.00;100543.84;10434080;28;20029;-81
2023/07/23 03:36:11;;;;;;;9.30;5.35;;;;;;;13.98;100.00;100538.31;10399797;28;20107;-80
2023/07/23 03:41:12;;;;;;;10.80;4.22;;;;;;;14.24;100.00;100503.91;10437288;28;20033;-81
2023/07/23 03:46:12;;;;;;;9.48;4.85;;;;;;;14.33;100.00;100498.91;10442727;28;20446;-81
2023/07/23 03:51:14;;;;;;;10.75;4.60;;;;;;;14.47;100.00;100485.22;10401329;28;20588;-81
2023/07/23 03:56:15;;;;;;;8.93;5.13;;;;;;;14.58;100.00;100477.59;10446997;28;20071;-81
2023/07/23 04:01:15;;;;;;;9.07;4.93;;;;;;;14.59;100.00;100488.16;10402774;28;20127;-81
2023/07/23 04:06:16;;;;;;;7.28;4.55;;;;;;;14.74;100.00;100481.53;10437334;28;20543;-81
2023/07/23 04:11:16;;;;;;;8.07;3.75;;;;;;;14.85;100.00;100480.03;10405079;28;20049;-86
2023/07/23 04:16:17;;;;;;;5.90;3.20;;;;;;;15.21;100.00;100475.59;10439747;28;20132;-82
2023/07/23 04:21:23;;;;;;;8.82;4.18;;;;;;;15.29;100.00;100479.28;10425611;28;20119;-81
2023/07/23 04:26:28;;;;;;;5.90;3.13;;;;;;;15.23;100.00;100477.41;10473044;28;20033;-82
2023/07/23 04:31:29;;;;;;;8.40;3.63;;;;;;;15.45;100.00;100480.50;10428514;28;20401;-81
2023/07/23 04:36:29;;;;;;;7.70;5.22;;;;;;;15.55;100.00;100485.13;10486947;28;20037;-82
2023/07/23 04:41:30;;;;;;;7.80;3.75;;;;;;;15.66;100.00;100480.06;10446579;28;20035;-81
2023/07/23 04:46:31;;;;;;;6.50;4.10;;;;;;;15.66;100.00;100489.72;10463741;28;20040;-81
2023/07/23 04:51:31;;;;;;;9.75;3.92;;;;;;;15.81;100.00;100490.03;10478345;28;20048;-82
2023/07/23 04:56:32;;;;;;;5.97;3.10;;;;;;;15.90;100.00;100483.19;10451955;28;20043;-81
2023/07/23 05:01:33;;;;;;;16.33;10.88;;;;;;;16.00;100.00;100478.16;10456022;28;20076;-80
2023/07/23 05:06:33;;;;;;;8.48;5.22;;;;;;;16.09;100.00;100487.97;10469736;28;20093;-79
2023/07/23 05:11:34;;;;;;;10.18;4.40;;;;;;;16.12;100.00;100488.03;10460831;28;20115;-76
2023/07/23 05:16:34;;;;;;;15.00;3.70;;;;;;;16.34;100.00;100480.50;10417413;28;20059;-77
2023/07/23 05:21:36;;;;;;;5.53;3.35;;;;;;;16.46;100.00;100476.28;10413150;28;20049;-78
2023/07/23 05:26:37;;;;;;;4.93;3.08;;;;;;;16.56;100.00;100472.94;10428036;28;20056;-78
2023/07/23 05:31:37;;;;;;;5.45;2.75;;;;;;;16.68;100.00;100469.63;10468060;28;20055;-78
2023/07/23 05:36:38;;;;;;;5.53;2.67;;;;;;;16.77;100.00;100468.88;10482878;28;20036;-77
2023/07/23 05:41:39;;;;;;;8.77;2.95;;;;;;;16.82;100.00;100470.75;10480718;28;20037;-80
2023/07/23 05:46:41;;;;;;;8.65;3.03;;;;;;;16.80;100.00;100475.13;10502562;28;20037;-81
2023/07/23 05:51:42;;;;;;;7.88;3.55;;;;;;;16.90;100.00;100480.53;10461401;28;20055;-80
2023/07/23 05:56:42;;;;;;;7.65;3.47;;;;;;;16.90;100.00;100470.84;10464176;28;20449;-86
2023/07/23 06:01:43;;;;;;;9.93;3.42;;;;;;;16.98;100.00;100479.81;10513202;28;20043;-80
2023/07/23 06:06:43;;;;;;;5.78;2.67;;;;;;;17.11;100.00;100474.72;10481206;28;20045;-79
2023/07/23 06:11:44;;;;;;;5.97;3.08;;;;;;;17.08;100.00;100477.31;10473480;28;20449;-81
2023/07/23 06:16:44;;;;;;;7.40;3.03;;;;;;;17.08;100.00;100482.59;10453295;28;20036;-77
2023/07/23 06:21:45;;;;;;;7.40;3.25;;;;;;;17.18;100.00;100481.88;10516154;27;20056;-78
2023/07/23 06:26:46;;;;;;;5.30;3.10;;;;;;;17.26;100.00;100487.28;10466778;28;20431;-77
2023/07/23 06:31:46;;;;;;;9.95;6.57;;;;;;;17.08;100.00;100494.06;10476256;28;20048;-77
2023/07/23 06:36:47;;;;;;;5.63;3.22;;;;;;;16.83;100.00;100496.31;10494907;28;20109;-80
2023/07/23 06:41:47;;;;;;;9.88;4.07;;;;;;;16.58;100.00;100497.63;10468074;28;20047;-80
2023/07/23 06:46:48;;;;;;;3.90;2.28;;;;;;;16.48;100.00;100508.91;10483890;28;20055;-80
2023/07/23 06:51:49;;;;;;;6.10;3.15;;;;;;;16.47;100.00;100501.84;10469370;28;20068;-78
2023/07/23 06:56:53;;;;;;;5.07;2.47;;;;;;;16.43;100.00;100512.34;10458609;28;20067;-79
2023/07/23 07:01:53;;;;;;;7.65;3.67;;;;;;;16.41;100.00;100507.94;10488270;28;20557;-78
2023/07/23 07:06:54;;;;;;;5.80;3.60;;;;;;;16.33;100.00;100504.25;10508920;28;20068;-79
2023/07/23 07:11:55;;;;;;;6.05;2.67;;;;;;;16.32;100.00;100516.56;10447108;28;20045;-91
2023/07/23 07:16:56;;;;;;;4.35;3.22;;;;;;;16.50;100.00;100508.09;10394601;28;20032;-86
2023/07/23 07:21:56;;;;;;;6.78;2.90;;;;;;;16.60;100.00;100511.75;10420333;28;20051;-82
2023/07/23 07:26:57;;;;;;;5.07;2.80;;;;;;;16.64;100.00;100518.00;10396817;28;20033;-78
2023/07/23 07:31:58;;;;;;;12.77;6.22;;;;;;;16.70;100.00;100511.06;10411880;28;20108;-77
2023/07/23 07:36:58;;;;;;;17.20;7.05;;;;;;;16.78;100.00;100523.50;10443149;28;20077;-77
2023/07/23 07:41:59;;;;;;;5.30;2.47;;;;;;;16.74;100.00;100530.50;10433702;28;20496;-77
2023/07/23 07:46:59;;;;;;;5.88;3.67;;;;;;;16.52;100.00;100546.00;10471043;28;20048;-75
2023/07/23 07:52:00;;;;;;;6.72;2.65;;;;;;;16.48;100.00;100541.50;10468980;28;20044;-74
2023/07/23 07:57:02;;;;;;;5.32;3.00;;;;;;;16.26;100.00;100551.66;10456454;28;20040;-74
2023/07/23 08:02:03;;;;;;;9.60;3.63;;;;;;;16.08;100.00;100561.88;10463646;28;20064;-77
2023/07/23 08:07:04;;;;;;;7.57;3.85;;;;;;;15.89;100.00;100565.88;10482100;28;20029;-75
2023/07/23 08:12:05;;;;;;;5.57;2.72;;;;;;;15.94;100.00;100575.66;10466238;28;20037;-76
2023/07/23 08:17:06;;;;;;;5.35;3.53;;;;;;;16.06;100.00;100585.56;10506193;28;20123;-78
2023/07/23 08:22:08;;;;;;;10.30;3.70;;;;;;;16.00;100.00;100574.91;10483781;28;20534;-75
2023/07/23 08:27:08;;;;;;;6.22;3.30;;;;;;;16.36;100.00;100575.63;10455333;28;20120;-75
2023/07/23 08:32:09;;;;;;;8.35;3.15;;;;;;;16.36;100.00;100555.34;10465577;28;20029;-78
2023/07/23 08:37:11;;;;;;;4.47;2.33;;;;;;;16.78;100.00;100571.06;10483616;28;20123;-75
2023/07/23 08:42:35;;;;;;;9.70;5.80;;;;;;;17.15;100.00;100550.56;10481561;28;20560;-75
2023/07/23 08:47:37;;;;;;;11.25;3.35;;;;;;;17.14;100.00;100549.69;10481328;28;20044;-77
2023/07/23 08:52:38;;;;;;;5.55;2.85;;;;;;;17.27;100.00;100552.53;10479807;28;20048;-77
2023/07/23 08:57:38;;;;;;;4.45;2.60;;;;;;;17.19;100.00;100556.81;10469699;28;20119;-76
2023/07/23 09:02:39;;;;;;;6.68;2.58;;;;;;;17.20;100.00;100556.81;10481983;28;20044;-75
2023/07/23 09:07:39;;;;;;;15.13;5.15;;;;;;;17.22;100.00;100560.38;10465085;28;20387;-75
2023/07/23 09:12:40;;;;;;;10.80;6.53;;;;;;;17.25;100.00;100563.06;10480961;28;20110;-76
2023/07/23 09:17:41;;;;;;;5.87;3.33;;;;;;;17.54;100.00;100569.66;10463923;28;20029;-74
2023/07/23 09:22:42;;;;;;;6.53;3.35;;;;;;;17.59;100.00;100565.34;10478885;28;20039;-75
2023/07/23 09:27:43;;;;;;;5.47;2.60;;;;;;;17.61;100.00;100561.81;10480777;28;20033;-76
2023/07/23 09:32:43;;;;;;;4.47;2.95;;;;;;;17.48;100.00;100567.81;10478428;28;20132;-76
2023/07/23 09:37:44;;;;;;;12.55;7.68;;;;;;;17.28;100.00;100578.97;10446234;28;20128;-75
2023/07/23 09:42:44;;;;;;;8.10;6.65;;;;;;;17.32;100.00;100580.81;10470189;28;20117;-76
2023/07/23 09:47:45;;;;;;;5.15;2.78;;;;;;;17.59;100.00;100565.34;10464376;28;20185;-78
2023/07/23 09:52:45;;;;;;;6.68;4.65;;;;;;;17.66;100.00;100564.53;10481242;28;20398;-78
2023/07/23 09:57:49;;;;;;;4.70;2.60;;;;;;;17.68;100.00;100583.06;10465026;28;20052;-77
2023/07/23 10:02:50;;;;;;;4.55;2.35;;;;;;;17.60;100.00;100585.63;10471968;28;20049;-77
2023/07/23 10:07:50;;;;;;;4.15;3.50;;;;;;;17.45;100.00;100573.97;10483184;28;20036;-76
2023/07/23 10:12:51;;;;;;;4.72;2.20;;;;;;;17.60;100.00;100580.34;10499046;28;20107;-76
2023/07/23 10:18:00;;;;;;;5.63;2.50;;;;;;;17.94;100.00;100586.09;10486933;28;20044;-76
2023/07/23 10:23:04;;;;;;;9.43;4.35;;;;;;;18.42;100.00;100583.16;10470458;28;20480;-77
2023/07/23 10:28:06;;;;;;;8.52;2.83;;;;;;;18.24;100.00;100579.41;10448609;28;20032;-76
2023/07/23 10:33:09;;;;;;;3.20;1.90;;;;;;;18.08;100.00;100578.34;10465766;28;20496;-75
2023/07/23 10:38:23;;;;;;;8.32;4.18;;;;;;;18.34;100.00;100583.06;10489940;28;20044;-78
2023/07/23 10:43:24;;;;;;;7.45;4.47;;;;;;;18.16;100.00;100591.69;10474575;28;20071;-78
2023/07/23 10:48:26;;;;;;;7.03;3.25;;;;;;;18.21;100.00;100587.34;10489708;28;20063;-77
2023/07/23 10:53:30;;;;;;;;;;;;;;;17.91;100.00;100580.75;10469017;28;20373;-76
2023/07/23 10:58:30;;;;;;;4.65;2.05;;;;;;;17.68;100.00;100602.50;10500106;28;19976;-77
2023/07/23 11:03:31;;;;;;;3.20;1.77;;;;;;;17.46;100.00;100596.00;10485226;28;20090;-75
2023/07/23 11:08:31;;;;;;;5.00;2.47;;;;;;;17.49;100.00;100600.47;10500018;28;20147;-76
2023/07/23 11:13:33;;;;;;;3.72;1.70;;;;;;;17.58;100.00;100596.19;10502091;28;20155;-76
2023/07/23 11:18:34;;;;;;;5.23;2.10;;;;;;;17.49;100.00;100609.28;10507221;28;20128;-74
2023/07/23 11:23:34;;;;;;;2.88;1.98;;;;;;;17.32;100.00;100604.59;10482645;28;20420;-73
2023/07/23 11:28:35;;;;;;;5.95;3.22;;;;;;;17.20;100.00;100607.06;10448299;28;20052;-76
2023/07/23 11:33:35;;;;;;;4.65;1.95;;;;;;;17.31;100.00;100602.84;10477201;28;21659;-74
2023/07/23 11:38:36;;;;;;;4.55;2.72;;;;;;;17.40;100.00;100609.13;10487530;28;20049;-73
2023/07/23 11:43:37;;;;;;;3.95;1.58;;;;;;;17.41;100.00;100610.91;10480635;28;20136;-73
2023/07/23 11:48:38;;;;;;;3.78;2.10;;;;;;;17.48;100.00;100596.91;10422758;28;20036;-73
2023/07/23 11:53:39;;;;;;;8.27;2.78;;;;;;;17.71;100.00;100596.34;10443813;28;20036;-73
2023/07/23 11:58:40;;;;;;;3.27;2.07;;;;;;;18.40;100.00;100572.53;10439728;28;20087;-75
2023/07/23 12:03:42;;;;;;;4.50;2.87;;;;;;;18.86;100.00;100561.50;10437516;28;20041;-74
2023/07/23 12:08:44;;;;;;;7.15;2.38;;;;;;;19.17;100.00;100553.81;10440381;28;20041;-74
2023/07/23 12:13:54;;;;;;;3.42;2.20;;;;;;;19.88;100.00;100541.81;10421761;28;20090;-74
2023/07/23 12:19:00;;;;;;;3.58;2.40;;;;;;;20.27;100.00;100531.31;10475488;28;20048;-74
2023/07/23 12:24:20;;;;;;;6.40;3.28;;;;;;;20.77;100.00;100530.50;10502837;28;20400;-74
2023/07/23 12:29:22;;;;;;;5.85;3.33;;;;;;;20.86;100.00;100532.31;10460771;28;20097;-75
2023/07/23 12:34:23;;;;;;;6.82;2.75;;;;;;;20.51;100.00;100531.38;10465279;28;20522;-74
2023/07/23 12:39:23;;;;;;;4.28;1.92;;;;;;;21.07;100.00;100526.09;10462207;28;20132;-74
2023/07/23 12:44:24;;;;;;;5.67;2.23;;;;;;;20.80;100.00;100522.56;10449453;28;20063;-74
2023/07/23 12:49:24;;;;;;;3.67;1.90;;;;;;;21.32;100.00;100528.72;10461352;28;20128;-75
2023/07/23 12:54:25;;;;;;;6.10;4.37;;;;;;;21.60;100.00;100510.00;10454365;28;20045;-74
2023/07/23 12:59:25;;;;;;;5.77;3.07;;;;;;;21.90;100.00;100523.25;10440358;28;20052;-74
2023/07/23 13:04:26;;;;;;;4.90;2.50;;;;;;;21.47;100.00;100524.25;10444117;28;20049;-74
2023/07/23 13:09:26;;;;;;;4.17;1.97;;;;;;;20.67;100.00;100520.75;10454585;28;20041;-74
2023/07/23 13:14:27;;;;;;;4.23;2.50;;;;;;;20.06;100.00;100531.28;10462617;28;20041;-76
2023/07/23 13:19:27;;;;;;;4.43;2.57;;;;;;;19.99;100.00;100532.16;10403229;28;20055;-76
2023/07/23 13:24:28;;;;;;;5.37;2.83;;;;;;;20.52;100.00;100527.81;10420986;28;20511;-76
2023/07/23 13:29:28;;;;;;;3.60;2.23;;;;;;;20.91;100.00;100522.56;10437373;28;20048;-77
2023/07/23 13:34:30;;;;;;;3.33;2.20;;;;;;;21.38;100.00;100525.16;10436087;28;20049;-76
2023/07/23 13:39:35;;;;;;;4.38;3.15;;;;;;;21.69;100.00;100517.97;10477763;28;20101;-74
2023/07/23 13:44:36;;;;;;;5.40;3.17;;;;;;;21.34;100.00;100508.31;10477670;28;20040;-76
2023/07/23 13:49:36;;;;;;;5.17;2.80;;;;;;;21.49;100.00;100509.16;10480942;28;20089;-75
2023/07/23 13:54:37;;;;;;;14.60;3.20;;;;;;;21.09;100.00;100503.03;10511999;28;20085;-75
2023/07/23 13:59:38;;;;;;;6.33;3.53;;;;;;;21.31;100.00;100505.66;10475444;28;20037;-75
2023/07/23 14:04:39;;;;;;;3.10;2.23;;;;;;;22.00;100.00;100496.53;10511857;28;20283;-76
2023/07/23 14:09:39;;;;;;;3.47;2.07;;;;;;;22.90;100.00;100481.69;10479367;28;20025;-76
2023/07/23 14:14:40;;;;;;;4.37;2.50;;;;;;;22.68;100.00;100470.31;10485296;28;20420;-74
2023/07/23 14:19:40;;;;;;;4.70;2.50;;;;;;;22.62;100.00;100468.59;10494184;28;20561;-74
2023/07/23 14:24:41;;;;;;;5.90;2.93;;;;;;;22.89;100.00;100450.56;10503827;28;20127;-76
2023/07/23 14:29:44;;;;;;;4.40;3.00;;;;;;;23.08;100.00;100463.72;10483285;28;20043;-76
2023/07/23 14:34:45;;;;;;;4.50;2.83;;;;;;;22.94;100.00;100466.53;10496971;28;20518;-74
2023/07/23 14:39:47;;;;;;;7.50;3.37;;;;;;;22.41;100.00;100454.50;10496023;28;20131;-75
2023/07/23 14:44:47;;;;;;;;;;;;;;;22.62;100.00;100457.03;10503826;28;20063;-76
2023/07/23 14:49:48;;;;;;;12.70;3.33;;;;;;;23.09;100.00;100445.00;10505562;28;19928;-76
2023/07/23 14:54:48;;;;;;;3.47;2.30;;;;;;;23.04;100.00;100436.16;10500286;28;20488;-75
2023/07/23 14:59:49;;;;;;;4.37;2.80;;;;;;;24.07;100.00;100440.25;10505323;28;20047;-74
2023/07/23 15:04:51;;;;;;;5.07;3.03;;;;;;;24.29;100.00;100425.66;10494753;28;20047;-74
2023/07/23 15:09:52;;;;;;;5.93;2.42;;;;;;;24.21;100.00;100429.38;10475228;28;20029;-75
2023/07/23 15:14:52;;;;;;;5.63;3.63;;;;;;;23.49;100.00;100429.44;10493119;28;20126;-75
2023/07/23 15:19:53;;;;;;;10.33;4.27;;;;;;;23.37;100.00;100422.50;10495442;28;20093;-78
2023/07/23 15:24:54;;;;;;;10.37;8.20;;;;;;;22.70;100.00;100423.19;10502692;28;20445;-75
2023/07/23 15:29:55;;;;;;;11.23;7.63;;;;;;;22.67;100.00;100426.78;10508322;27;20037;-76
2023/07/23 15:34:56;;;;;;;6.80;2.77;;;;;;;23.24;100.00;100421.75;10470374;28;20067;-77
2023/07/23 15:39:56;;;;;;;6.20;3.40;;;;;;;23.30;100.00;100411.00;10517303;28;20400;-75
2023/07/23 15:45:04;;;;;;;5.70;3.70;;;;;;;23.01;100.00;100415.75;10497503;28;20041;-76
2023/07/23 15:50:08;;;;;;;6.13;2.83;;;;;;;22.45;100.00;100407.41;10494386;28;20035;-77
2023/07/23 15:55:11;;;;;;;6.32;3.53;;;;;;;22.44;100.00;100402.94;10505286;28;20119;-77
2023/07/23 16:00:12;;;;;;;5.55;3.22;;;;;;;22.62;100.00;100406.38;10459933;28;20037;-77
2023/07/23 16:05:13;;;;;;;5.30;3.63;;;;;;;22.33;100.00;100405.72;10438778;28;20502;-76
2023/07/23 16:10:14;;;;;;;5.53;3.03;;;;;;;22.13;100.00;100401.44;10441446;28;20040;-78
2023/07/23 16:15:14;;;;;;;6.57;3.33;;;;;;;22.01;100.00;100401.50;10438603;28;20762;-75
2023/07/23 16:20:15;;;;;;;6.50;3.33;;;;;;;21.96;100.00;100409.53;10442704;28;20052;-76
2023/07/23 16:25:15;;;;;;;4.83;1.97;;;;;;;21.56;100.00;100409.72;10441722;28;20041;-77
2023/07/23 16:30:16;;;;;;;4.77;2.93;;;;;;;21.49;100.00;100408.88;10427419;28;20057;-77
2023/07/23 16:35:17;;;;;;;6.87;3.23;;;;;;;21.69;100.00;100400.81;10412871;28;20555;-76
2023/07/23 16:40:18;;;;;;;6.88;2.53;;;;;;;21.70;100.00;100399.06;10465183;28;20024;-76
2023/07/23 16:45:19;;;;;;;3.83;2.23;;;;;;;21.64;100.00;100394.63;10453290;28;20045;-76
2023/07/23 16:50:19;;;;;;;4.87;2.33;;;;;;;21.79;100.00;100395.44;10419705;28;20385;-75
2023/07/23 16:55:20;;;;;;;3.67;2.47;;;;;;;21.87;100.00;100390.94;10445785;28;20076;-75
2023/07/23 17:00:23;;;;;;;3.40;1.67;;;;;;;21.86;100.00;100383.84;10411069;28;20048;-75
2023/07/23 17:05:24;;;;;;;2.63;1.85;;;;;;;21.76;100.00;100371.47;10419398;28;20045;-75
2023/07/23 17:10:25;;;;;;;3.73;1.90;;;;;;;21.41;100.00;100381.41;10460947;28;20087;-75
2023/07/23 17:15:25;;;;;;;3.17;2.03;;;;;;;21.12;100.00;100390.41;10450923;28;20108;-74
2023/07/23 17:20:26;;;;;;;3.67;1.80;;;;;;;21.05;100.00;100386.88;10414950;28;20667;-75
2023/07/23 17:25:26;;;;;;;5.30;2.17;;;;;;;21.04;100.00;100384.22;10449613;28;20090;-77
2023/07/23 17:30:27;;;;;;;2.28;1.63;;;;;;;20.80;100.00;100384.28;10431480;28;20735;-76
2023/07/23 17:35:27;;;;;;;4.13;1.52;;;;;;;20.68;100.00;100389.59;10438574;28;20053;-76
2023/07/23 17:40:28;;;;;;;3.30;1.67;;;;;;;20.60;100.00;100394.03;10437186;28;20071;-77
2023/07/23 17:45:28;;;;;;;6.70;3.58;;;;;;;20.49;100.00;100400.25;10436958;28;20049;-76
2023/07/23 17:50:29;;;;;;;3.47;1.60;;;;;;;20.23;100.00;100403.78;10439136;28;20041;-77
2023/07/23 17:55:29;;;;;;;4.72;2.38;;;;;;;20.08;100.00;100404.69;10439760;28;20033;-78
2023/07/23 18:00:30;;;;;;;3.47;1.50;;;;;;;19.98;100.00;100415.28;10439806;28;20041;-78
2023/07/23 18:05:31;;;;;;;4.03;1.55;;;;;;;19.80;100.00;100411.66;10438456;28;20037;-77
2023/07/23 18:10:32;;;;;;;2.33;1.23;;;;;;;19.59;100.00;100417.81;10436651;28;20037;-80
2023/07/23 18:15:33;;;;;;;5.70;2.28;;;;;;;19.05;100.00;100440.56;10447148;28;20041;-76
2023/07/23 18:20:34;;;;;;;2.83;1.83;;;;;;;18.53;100.00;100470.22;10442984;28;20037;-77
2023/07/23 18:25:34;;;;;;;3.13;1.38;;;;;;;18.19;100.00;100496.38;10444383;28;20045;-79
2023/07/23 18:30:35;;;;;;;2.67;1.45;;;;;;;17.99;100.00;100512.00;10444790;28;20060;-77
2023/07/23 18:35:36;;;;;;;2.38;1.63;;;;;;;17.83;100.00;100525.06;10436521;28;20043;-77
2023/07/23 18:40:37;;;;;;;2.47;1.60;;;;;;;17.68;100.00;100535.44;10447496;28;20125;-76
2023/07/23 18:45:37;;;;;;;4.63;2.45;;;;;;;17.54;100.00;100527.34;10437877;28;20048;-75
2023/07/23 18:50:38;;;;;;;3.83;2.60;;;;;;;17.43;100.00;100521.88;10433254;28;20041;-76
2023/07/23 18:55:38;;;;;;;4.22;2.70;;;;;;;17.38;100.00;100518.28;10443406;28;20113;-77
2023/07/23 19:00:39;;;;;;;7.78;4.30;;;;;;;17.30;100.00;100523.47;10470117;28;20085;-75
2023/07/23 19:05:41;;;;;;;4.85;2.85;;;;;;;17.20;100.00;100519.78;10480234;28;20048;-75
2023/07/23 19:10:42;;;;;;;5.18;2.38;;;;;;;17.16;100.00;100521.53;10479537;28;20627;-75
2023/07/23 19:15:42;;;;;;;7.85;3.47;;;;;;;17.12;100.00;100524.09;10476564;28;20040;-75
2023/07/23 19:20:43;;;;;;;7.75;3.67;;;;;;;17.08;100.00;100519.59;10498962;28;20048;-76
2023/07/23 19:25:43;;;;;;;5.45;3.65;;;;;;;17.02;100.00;100517.78;10505682;28;20044;-76
2023/07/23 19:30:44;;;;;;;19.23;12.40;;;;;;;17.01;100.00;100523.94;10503610;28;20054;-75
2023/07/23 19:35:45;;;;;;;8.52;5.40;;;;;;;17.01;100.00;100526.56;10506702;28;20567;-75
2023/07/23 19:40:45;;;;;;;6.60;4.13;;;;;;;17.02;100.00;100528.34;10516488;28;20029;-74
2023/07/23 19:45:46;;;;;;;7.93;5.50;;;;;;;17.00;100.00;100528.31;10498417;28;20115;-75
2023/07/23 19:50:46;;;;;;;7.90;4.45;;;;;;;17.00;100.00;100530.09;10495486;28;20037;-75
2023/07/23 19:55:47;;;;;;;7.45;4.30;;;;;;;16.99;100.00;100526.53;10486057;28;20391;-76
2023/07/23 20:00:47;;;;;;;5.68;3.88;;;;;;;16.92;100.00;100521.97;10500516;28;20036;-74
2023/07/23 20:05:52;;;;;;;5.90;4.47;;;;;;;16.85;100.00;100526.28;10439061;28;20171;-75
2023/07/23 20:10:52;;;;;;;7.45;3.10;;;;;;;16.84;100.00;100527.16;10441005;28;20660;-74
2023/07/23 20:15:56;;;;;;;5.90;3.53;;;;;;;16.82;100.00;100530.63;10441212;28;20056;-76
2023/07/23 20:20:57;;;;;;;5.95;3.75;;;;;;;16.81;100.00;100535.03;10443136;28;20037;-75
2023/07/23 20:25:58;;;;;;;9.27;4.30;;;;;;;16.82;100.00;100525.34;10432605;28;20068;-75
2023/07/23 20:30:59;;;;;;;7.63;4.20;;;;;;;16.79;100.00;100517.34;10439758;28;20497;-76
2023/07/23 20:36:01;;;;;;;7.00;4.80;;;;;;;16.76;100.00;100525.22;10421375;28;20045;-75
2023/07/23 20:41:02;;;;;;;10.32;5.70;;;;;;;16.75;100.00;100524.38;10442162;28;20101;-76
2023/07/23 20:46:03;;;;;;;9.70;5.17;;;;;;;16.75;100.00;100513.78;10439128;28;20043;-75
2023/07/23 20:51:03;;;;;;;7.60;4.13;;;;;;;16.71;100.00;100511.97;10441865;28;20481;-76
2023/07/23 20:56:04;;;;;;;9.38;4.10;;;;;;;16.68;100.00;100504.84;10438821;28;20051;-75
2023/07/23 21:01:04;;;;;;;10.70;5.85;;;;;;;16.66;100.00;100498.66;10439412;28;20043;-75
2023/07/23 21:06:05;;;;;;;9.50;4.72;;;;;;;16.64;100.00;100508.31;10440263;28;20507;-75
2023/07/23 21:11:05;;;;;;;9.15;4.35;;;;;;;16.61;100.00;100507.38;10441654;28;20493;-75
2023/07/23 21:16:06;;;;;;;5.78;4.20;;;;;;;16.61;100.00;100512.66;10440079;28;20064;-75
2023/07/23 21:21:06;;;;;;;7.45;4.57;;;;;;;16.62;100.00;100514.44;10434985;28;20037;-75
2023/07/23 21:26:07;;;;;;;12.93;7.00;;;;;;;16.61;100.00;100504.75;10439958;28;20041;-75
2023/07/23 21:31:07;;;;;;;10.98;6.20;;;;;;;16.61;100.00;100510.03;10437952;28;20063;-75
2023/07/23 21:36:08;;;;;;;10.70;6.63;;;;;;;16.64;100.00;100500.38;10439250;28;20124;-74
2023/07/23 21:41:08;;;;;;;9.00;6.15;;;;;;;16.64;100.00;100500.38;10437083;28;20124;-76
2023/07/23 21:46:09;;;;;;;8.40;6.18;;;;;;;16.67;100.00;100505.72;10444789;28;20071;-75
2023/07/23 21:51:09;;;;;;;11.57;6.38;;;;;;;16.68;100.00;100499.56;10482612;28;20119;-75
2023/07/23 21:56:10;;;;;;;12.70;6.47;;;;;;;16.68;100.00;100499.56;10471584;28;20041;-74
2023/07/23 22:01:11;;;;;;;9.98;5.95;;;;;;;16.66;100.00;100493.38;10450763;28;20119;-75
2023/07/23 22:06:11;;;;;;;10.60;5.65;;;;;;;16.66;100.00;100492.50;10462275;28;20841;-75
2023/07/23 22:11:12;;;;;;;10.52;4.70;;;;;;;16.52;100.00;100481.69;10463737;28;20123;-77
2023/07/23 22:16:12;;;;;;;8.60;3.42;;;;;;;16.30;100.00;100476.03;10464648;28;20102;-75
2023/07/23 22:21:13;;;;;;;8.85;4.15;;;;;;;16.17;100.00;100471.38;10470662;28;20485;-75
2023/07/23 22:26:13;;;;;;;9.38;3.97;;;;;;;16.07;100.00;100468.56;10497324;28;20080;-75
2023/07/23 22:31:14;;;;;;;7.88;4.07;;;;;;;15.82;100.00;100444.31;10459094;28;20041;-75
2023/07/23 22:36:14;;;;;;;6.30;3.28;;;;;;;15.63;100.00;100453.63;10472585;28;20123;-76
2023/07/23 22:41:15;;;;;;;8.45;3.88;;;;;;;15.58;100.00;100450.00;10476834;28;20145;-75